Flight Track Log - Related Links

Times and Time Zones

All times are in EDT time to prevent confusion due to time zone crossing. See the SWA3206 flight status page for this flight to view local times or setup timezone preferences in your user account.

Time Position Orientation Groundspeed Altitude Reporting Facility
EDT Latitude Longitude Course Direction KTS MPH feet Rate Location/Type
Tue 07:19:13 PM 32.7411 -117.2225 284° West 147 169 1,400  Level Los Angeles Center
Tue 07:20:15 PM 32.7544 -117.2844 284° West 183 211 3,700 2,081 Climbing Los Angeles Center
Tue 07:21:17 PM 32.7108 -117.3283 220° Southwest 221 254 5,700 2,565 Climbing Los Angeles Center
Tue 07:22:19 PM 32.6544 -117.2628 136° Southeast 274 315 9,000 2,829 Climbing Los Angeles Center
Tue 07:23:20 PM 32.6383 -117.1586 100° East 317 365 11,500 2,732 Climbing Los Angeles Center
Tue 07:24:22 PM 32.6197 -117.0372 100° East 360 414 14,600 3,122 Climbing Los Angeles Center
Tue 07:25:23 PM 32.6211 -116.8767 89° East 407 468 17,900 2,878 Climbing Los Angeles Center
Tue 07:26:25 PM 32.6342 -116.7367 84° East 424 488 20,500 2,323 Climbing Los Angeles Center
Tue 07:27:27 PM 32.6492 -116.5875 83° East 455 524 22,700 2,274 Climbing Los Angeles Center
Tue 07:28:29 PM 32.6636 -116.4339 84° East 472 543 25,200 2,146 Climbing Los Angeles Center
Tue 07:29:30 PM 32.6778 -116.2767 84° East 484 557 27,100 1,951 Climbing Los Angeles Center
Tue 07:30:32 PM 32.6972 -116.0783 83° East 506 582 29,200 1,935 Climbing Los Angeles Center
Tue 07:31:34 PM 32.7122 -115.9075 84° East 518 596 31,100 2,032 Climbing Los Angeles Center
Tue 07:32:36 PM 32.7283 -115.7367 84° East 523 602 33,400 1,854 Climbing Los Angeles Center
Tue 07:33:37 PM 32.7436 -115.5703 84° East 515 593 34,900 732 Climbing Los Angeles Center
Tue 07:34:39 PM 32.7531 -115.4019 86° East 512 589 34,900  Level Los Angeles Center
Tue 07:35:41 PM 32.7581 -115.2303 88° East 518 596 34,900  Level Los Angeles Center
Tue 07:36:43 PM 32.7628 -115.0269 88° East 514 592 34,900  Level Los Angeles Center
Tue 07:37:45 PM 32.7664 -114.8603 88° East 508 585 34,900 -387 Level Los Angeles Center
Tue 07:38:47 PM 32.7700 -114.6908 89° East 514 592 34,100 -1,756 Descending Los Angeles Center
Tue 07:39:48 PM 32.7725 -114.5192 89° East 518 596 31,300 -2,634 Descending Los Angeles Center
Tue 07:40:50 PM 32.7736 -114.3475 90° East 520 598 28,700 -2,371 Descending Los Angeles Center
Tue 07:41:52 PM 32.7761 -114.1794 89° East 509 586 26,400 -2,337 Descending Los Angeles Center
Tue 07:42:25 PM 32.7761 -114.0633 90° East 507 583 25,000 -947 Descending Albuquerque Center
Tue 07:43:27 PM 32.7839 -113.9044 87° East 489 563 24,900 -49 Descending Albuquerque Center
Tue 07:44:28 PM 32.8089 -113.7478 79° East 480 552 24,900  Level Albuquerque Center
Tue 07:45:30 PM 32.8719 -113.6131 61° Northeast 468 539 24,900 -244 Level Albuquerque Center
Tue 07:46:31 PM 32.9594 -113.4939 49° Northeast 469 540 24,400 -585 Descending Albuquerque Center
Tue 07:47:33 PM 33.0253 -113.3606 59° Northeast 469 540 23,700 -1,317 Descending Albuquerque Center
Tue 07:48:34 PM 33.0894 -113.2244 61° Northeast 469 540 21,700 -2,000 Descending Albuquerque Center
Tue 07:49:36 PM 33.1514 -113.0933 61° Northeast 464 534 19,600 -2,098 Descending Albuquerque Center
Tue 07:50:37 PM 33.2108 -112.9664 61° Northeast 448 516 17,400 -1,805 Descending Albuquerque Center
Tue 07:51:39 PM 33.2747 -112.8242 62° Northeast 411 473 15,900 -823 Descending Albuquerque Center
Tue 07:52:41 PM 33.2819 -112.7069 86° East 367 422 15,700 -829 Descending Albuquerque Center
Tue 07:53:42 PM 33.2847 -112.5944 88° East 347 399 14,200 -1,463 Descending Albuquerque Center
Tue 07:54:44 PM 33.2875 -112.4858 88° East 341 392 12,700 -1,512 Descending Albuquerque Center
Tue 07:55:45 PM 33.2911 -112.3761 88° East 337 388 11,100 -1,171 Descending Albuquerque Center
Tue 07:56:47 PM 33.2978 -112.2706 86° East 327 376 10,300 -823 Descending Albuquerque Center
Tue 07:57:49 PM 33.3047 -112.1711 85° East 313 360 9,400 -927 Descending Albuquerque Center
Tue 07:58:50 PM 33.3175 -112.0644 82° East 286 329 8,400 -1,024 Descending Albuquerque Center
Tue 07:59:52 PM 33.3383 -111.9844 73° East 264 304 7,300 -1,113 Descending Albuquerque Center
Tue 08:00:54 PM 33.3467 -111.9033 83° East 255 293 6,100 -1,220 Descending Albuquerque Center
Tue 08:01:55 PM 33.3553 -111.8264 82° East 259 298 4,800 -1,171 Descending Albuquerque Center
Tue 08:02:57 PM 33.4064 -111.8358 351° North 219 252 3,700 -968 Descending Albuquerque Center
Tue 08:03:59 PM 33.4278 -111.8881 296° West 193 222 2,800 -774 Descending Albuquerque Center
Tue 08:05:01 PM 33.4306 -111.9353 274° West 163 188 2,100 -585 Descending Albuquerque Center
Tue 08:06:02 PM 33.4303 -111.9842 270° West 147 169 1,600 -492 Descending Albuquerque Center

Login

Don't have an account? Register now (free) for customized features, flight alerts, and more!